Terminal Aerodrome Forecast
Issued by NWS Paducah, KY

Home | Current Version | Previous Version | Text Only | Print | Product List | Glossary Off
Versions: 1 2 3 4 5 6 7 8 9 10 11 12 13 14 15 16 17 18

125
FTUS43 KPAH 182320
TAFEVV
TAF
KEVV 182320Z 1900/1924 VRB03KT P6SM BKN015
     FM190800 VRB03KT P6SM OVC015
     FM191300 10004KT P6SM VCSH OVC015
     FM191600 10006KT 3SM SHRA BR OVC009
     FM192000 11007KT 4SM HZ VCSH OVC006=

USA.gov is the U.S. government's official web portal to all federal, state and local government web resources and services.